aviador You're here:

LBPD Decoded Metar

PLOVDIV in BULGARIA
Report Time2017-08-21 13:30:00
UTC Time2017-08-21 13:54:13
Flight Rules vfr VFR
Wind280° at 23 kt
W.Decomp.*RWY 30: 21.2 kt HW 9 kt LCW
W.Rank280° ranks 1
Current wind is above 280° avg. (11.4)
Visibility9999 m
Phenomena:Shower Rain
Clouds:Few 071 Hf
Expected CloudBase > 6,000 ft AGL from Temp-Dew spread
CeilingNone
Temp28°C (ISA +14)
Dew Point13°C (40% RH)
Heat Index27.7°C
AAT20.7°C
QNH1010 hPa
Density Alt2,543 ft
Elevation607 ft
Report Wrong Elevation
Raw Report
LBPD 211330Z AUTO 28023KT 9999 FEW071/// 28/13 Q1010 TEMPO SHRA
FEW030TCU=

Extra information for LBPD:More info

Metar Taf Metar & Taf Last 4 Metars F.Rules Stats Wind Profile Meteogram Temp Stats Airport Information Weather charts Add Link Nearby VenuesMetar ALERT Operation Metar Decoded Social comments